sensor_id;sensor_type;location;lat;lon;timestamp;temperature;humidity
17986;DHT22;9118;48.122;11.546;2022-09-13T00:01:03;14.00;99.90
17986;DHT22;9118;48.122;11.546;2022-09-13T00:03:31;14.00;99.90
17986;DHT22;9118;48.122;11.546;2022-09-13T00:06:07;13.90;99.90
17986;DHT22;9118;48.122;11.546;2022-09-13T00:08:35;13.80;99.90
17986;DHT22;9118;48.122;11.546;2022-09-13T00:11:03;13.80;99.90
17986;DHT22;9118;48.122;11.546;2022-09-13T00:13:30;13.80;99.90
17986;DHT22;9118;48.122;11.546;2022-09-13T00:15:58;13.70;99.90
17986;DHT22;9118;48.122;11.546;2022-09-13T00:18:30;13.70;99.90
17986;DHT22;9118;48.122;11.546;2022-09-13T00:21:05;13.70;99.90
17986;DHT22;9118;48.122;11.546;2022-09-13T00:23:35;13.70;99.90
17986;DHT22;9118;48.122;11.546;2022-09-13T00:26:17;13.70;99.90
17986;DHT22;9118;48.122;11.546;2022-09-13T00:29:01;13.70;99.90
17986;DHT22;9118;48.122;11.546;2022-09-13T00:31:28;13.60;99.90
17986;DHT22;9118;48.122;11.546;2022-09-13T00:34:18;13.60;99.90
17986;DHT22;9118;48.122;11.546;2022-09-13T00:36:47;13.50;99.90
17986;DHT22;9118;48.122;11.546;2022-09-13T00:39:30;12.90;99.90
17986;DHT22;9118;48.122;11.546;2022-09-13T00:42:11;13.50;99.90
17986;DHT22;9118;48.122;11.546;2022-09-13T00:44:52;13.40;99.90
17986;DHT22;9118;48.122;11.546;2022-09-13T00:47:24;13.40;99.90
17986;DHT22;9118;48.122;11.546;2022-09-13T00:49:56;13.40;99.90
17986;DHT22;9118;48.122;11.546;2022-09-13T00:52:29;13.40;99.90
17986;DHT22;9118;48.122;11.546;2022-09-13T00:55:04;13.40;99.90
17986;DHT22;9118;48.122;11.546;2022-09-13T00:57:38;13.40;99.90
17986;DHT22;9118;48.122;11.546;2022-09-13T01:00:08;13.30;99.90
17986;DHT22;9118;48.122;11.546;2022-09-13T01:02:45;13.20;99.90
17986;DHT22;9118;48.122;11.546;2022-09-13T01:05:21;13.20;99.90
17986;DHT22;9118;48.122;11.546;2022-09-13T01:07:51;13.10;99.90
17986;DHT22;9118;48.122;11.546;2022-09-13T01:10:18;13.10;99.90
17986;DHT22;9118;48.122;11.546;2022-09-13T01:12:51;13.10;99.90
17986;DHT22;9118;48.122;11.546;2022-09-13T01:15:24;13.10;99.90
17986;DHT22;9118;48.122;11.546;2022-09-13T01:17:52;13.10;99.90
17986;DHT22;9118;48.122;11.546;2022-09-13T01:20:27;13.10;99.90
17986;DHT22;9118;48.122;11.546;2022-09-13T01:29:38;13.10;99.90
17986;DHT22;9118;48.122;11.546;2022-09-13T01:35:26;13.10;99.90
17986;DHT22;9118;48.122;11.546;2022-09-13T01:38:05;13.00;99.90
17986;DHT22;9118;48.122;11.546;2022-09-13T01:40:50;13.00;99.90
17986;DHT22;9118;48.122;11.546;2022-09-13T01:43:31;12.80;99.90
17986;DHT22;9118;48.122;11.546;2022-09-13T01:46:05;13.00;99.90
17986;DHT22;9118;48.122;11.546;2022-09-13T01:48:46;13.00;99.90
17986;DHT22;9118;48.122;11.546;2022-09-13T01:51:24;12.90;99.90
17986;DHT22;9118;48.122;11.546;2022-09-13T01:53:58;13.00;99.90
17986;DHT22;9118;48.122;11.546;2022-09-13T01:56:35;12.90;99.90
17986;DHT22;9118;48.122;11.546;2022-09-13T01:59:13;12.90;99.90
17986;DHT22;9118;48.122;11.546;2022-09-13T02:01:45;12.90;99.90
17986;DHT22;9118;48.122;11.546;2022-09-13T02:04:20;12.90;99.90
17986;DHT22;9118;48.122;11.546;2022-09-13T02:06:53;12.90;99.90
17986;DHT22;9118;48.122;11.546;2022-09-13T02:09:27;12.90;99.90
17986;DHT22;9118;48.122;11.546;2022-09-13T02:12:02;13.20;99.90
17986;DHT22;9118;48.122;11.546;2022-09-13T02:14:47;12.80;99.90
17986;DHT22;9118;48.122;11.546;2022-09-13T02:17:35;12.80;99.90
17986;DHT22;9118;48.122;11.546;2022-09-13T02:20:09;12.80;99.90
17986;DHT22;9118;48.122;11.546;2022-09-13T02:22:46;12.80;99.90
17986;DHT22;9118;48.122;11.546;2022-09-13T02:25:25;12.80;99.90
17986;DHT22;9118;48.122;11.546;2022-09-13T02:28:22;12.80;99.90
17986;DHT22;9118;48.122;11.546;2022-09-13T02:31:03;12.00;99.90
17986;DHT22;9118;48.122;11.546;2022-09-13T02:33:56;14.00;99.90
17986;DHT22;9118;48.122;11.546;2022-09-13T02:36:33;12.80;99.90
17986;DHT22;9118;48.122;11.546;2022-09-13T02:39:07;12.80;99.90
17986;DHT22;9118;48.122;11.546;2022-09-13T02:41:45;12.80;99.90
17986;DHT22;9118;48.122;11.546;2022-09-13T02:44:21;12.70;99.90
17986;DHT22;9118;48.122;11.546;2022-09-13T02:47:03;12.70;99.90
17986;DHT22;9118;48.122;11.546;2022-09-13T02:49:42;12.70;99.90
17986;DHT22;9118;48.122;11.546;2022-09-13T02:52:25;12.70;99.90
17986;DHT22;9118;48.122;11.546;2022-09-13T02:55:02;12.60;99.90
17986;DHT22;9118;48.122;11.546;2022-09-13T02:57:41;12.70;99.90
17986;DHT22;9118;48.122;11.546;2022-09-13T03:00:13;12.70;99.90
17986;DHT22;9118;48.122;11.546;2022-09-13T03:02:44;12.70;99.90
17986;DHT22;9118;48.122;11.546;2022-09-13T03:05:12;12.70;99.90
17986;DHT22;9118;48.122;11.546;2022-09-13T03:07:39;12.70;99.90
17986;DHT22;9118;48.122;11.546;2022-09-13T03:10:10;12.70;99.90
17986;DHT22;9118;48.122;11.546;2022-09-13T03:13:01;12.70;99.90
17986;DHT22;9118;48.122;11.546;2022-09-13T03:15:44;12.60;99.90
17986;DHT22;9118;48.122;11.546;2022-09-13T03:18:29;12.70;99.90
17986;DHT22;9118;48.122;11.546;2022-09-13T03:21:07;13.20;99.90
17986;DHT22;9118;48.122;11.546;2022-09-13T03:23:54;12.60;99.90
17986;DHT22;9118;48.122;11.546;2022-09-13T03:26:41;12.60;99.90
17986;DHT22;9118;48.122;11.546;2022-09-13T03:29:33;12.60;99.90
17986;DHT22;9118;48.122;11.546;2022-09-13T03:32:32;12.60;99.90
17986;DHT22;9118;48.122;11.546;2022-09-13T03:35:06;12.50;99.90
17986;DHT22;9118;48.122;11.546;2022-09-13T03:37:46;12.50;99.90
17986;DHT22;9118;48.122;11.546;2022-09-13T03:40:24;12.50;99.90
17986;DHT22;9118;48.122;11.546;2022-09-13T03:42:59;12.50;99.90
17986;DHT22;9118;48.122;11.546;2022-09-13T03:45:32;12.50;99.90
17986;DHT22;9118;48.122;11.546;2022-09-13T03:48:02;12.50;99.90
17986;DHT22;9118;48.122;11.546;2022-09-13T03:50:30;12.50;99.90
17986;DHT22;9118;48.122;11.546;2022-09-13T03:53:01;12.50;99.90
17986;DHT22;9118;48.122;11.546;2022-09-13T03:55:31;12.50;99.90
17986;DHT22;9118;48.122;11.546;2022-09-13T03:58:00;12.50;99.90
17986;DHT22;9118;48.122;11.546;2022-09-13T04:00:27;12.50;99.90
17986;DHT22;9118;48.122;11.546;2022-09-13T04:02:56;12.50;99.90
17986;DHT22;9118;48.122;11.546;2022-09-13T04:05:23;12.50;99.90
17986;DHT22;9118;48.122;11.546;2022-09-13T04:07:50;12.50;99.90
17986;DHT22;9118;48.122;11.546;2022-09-13T04:10:17;12.50;99.90
17986;DHT22;9118;48.122;11.546;2022-09-13T04:12:46;12.50;99.90
17986;DHT22;9118;48.122;11.546;2022-09-13T04:15:15;12.50;99.90
17986;DHT22;9118;48.122;11.546;2022-09-13T04:17:42;12.50;99.90
17986;DHT22;9118;48.122;11.546;2022-09-13T04:20:09;12.50;99.90
17986;DHT22;9118;48.122;11.546;2022-09-13T04:22:37;12.50;99.90
17986;DHT22;9118;48.122;11.546;2022-09-13T04:25:05;12.50;99.90
17986;DHT22;9118;48.122;11.546;2022-09-13T04:27:33;13.20;99.90
17986;DHT22;9118;48.122;11.546;2022-09-13T04:30:00;12.40;99.90
17986;DHT22;9118;48.122;11.546;2022-09-13T04:32:29;12.40;99.90
17986;DHT22;9118;48.122;11.546;2022-09-13T04:34:56;12.40;99.90
17986;DHT22;9118;48.122;11.546;2022-09-13T04:37:24;12.40;99.90
17986;DHT22;9118;48.122;11.546;2022-09-13T04:39:51;12.50;99.90
17986;DHT22;9118;48.122;11.546;2022-09-13T04:42:18;12.50;99.90
17986;DHT22;9118;48.122;11.546;2022-09-13T04:44:45;12.50;99.90
17986;DHT22;9118;48.122;11.546;2022-09-13T04:47:14;12.50;99.90
17986;DHT22;9118;48.122;11.546;2022-09-13T04:49:43;12.50;99.90
17986;DHT22;9118;48.122;11.546;2022-09-13T04:52:12;12.50;99.90
17986;DHT22;9118;48.122;11.546;2022-09-13T04:54:52;12.50;99.90
17986;DHT22;9118;48.122;11.546;2022-09-13T04:57:20;12.50;99.90
17986;DHT22;9118;48.122;11.546;2022-09-13T04:59:47;12.60;99.90
17986;DHT22;9118;48.122;11.546;2022-09-13T05:02:14;12.60;99.90
17986;DHT22;9118;48.122;11.546;2022-09-13T05:04:44;12.60;99.90
17986;DHT22;9118;48.122;11.546;2022-09-13T05:07:11;12.60;99.90
17986;DHT22;9118;48.122;11.546;2022-09-13T05:09:38;12.70;99.90
17986;DHT22;9118;48.122;11.546;2022-09-13T05:12:06;12.70;99.90
17986;DHT22;9118;48.122;11.546;2022-09-13T05:14:33;12.80;99.90
17986;DHT22;9118;48.122;11.546;2022-09-13T05:17:00;12.70;99.90
17986;DHT22;9118;48.122;11.546;2022-09-13T05:19:28;12.80;99.90
17986;DHT22;9118;48.122;11.546;2022-09-13T05:21:56;12.90;99.90
17986;DHT22;9118;48.122;11.546;2022-09-13T05:24:23;12.90;99.90
17986;DHT22;9118;48.122;11.546;2022-09-13T05:26:50;12.90;99.90
17986;DHT22;9118;48.122;11.546;2022-09-13T05:29:18;13.00;99.90
17986;DHT22;9118;48.122;11.546;2022-09-13T05:31:45;13.00;99.90
17986;DHT22;9118;48.122;11.546;2022-09-13T05:34:14;13.10;99.90
17986;DHT22;9118;48.122;11.546;2022-09-13T05:36:42;13.10;99.90
17986;DHT22;9118;48.122;11.546;2022-09-13T05:39:14;13.20;99.90
17986;DHT22;9118;48.122;11.546;2022-09-13T05:41:42;13.20;99.90
17986;DHT22;9118;48.122;11.546;2022-09-13T05:44:10;13.30;99.90
17986;DHT22;9118;48.122;11.546;2022-09-13T05:46:38;13.30;99.90
17986;DHT22;9118;48.122;11.546;2022-09-13T05:49:05;13.40;99.90
17986;DHT22;9118;48.122;11.546;2022-09-13T05:51:38;13.50;99.90
17986;DHT22;9118;48.122;11.546;2022-09-13T05:54:06;13.50;99.90
17986;DHT22;9118;48.122;11.546;2022-09-13T05:56:36;13.50;99.90
17986;DHT22;9118;48.122;11.546;2022-09-13T05:59:03;13.60;99.90
17986;DHT22;9118;48.122;11.546;2022-09-13T06:01:30;13.60;99.90
17986;DHT22;9118;48.122;11.546;2022-09-13T06:03:58;13.60;99.90
17986;DHT22;9118;48.122;11.546;2022-09-13T06:06:25;13.70;99.90
17986;DHT22;9118;48.122;11.546;2022-09-13T06:08:53;13.70;99.90
17986;DHT22;9118;48.122;11.546;2022-09-13T06:11:21;13.70;99.90
17986;DHT22;9118;48.122;11.546;2022-09-13T06:13:51;13.80;99.90
17986;DHT22;9118;48.122;11.546;2022-09-13T06:16:19;13.90;99.90
17986;DHT22;9118;48.122;11.546;2022-09-13T06:18:46;14.00;99.90
17986;DHT22;9118;48.122;11.546;2022-09-13T06:21:16;14.10;99.90
17986;DHT22;9118;48.122;11.546;2022-09-13T06:23:43;14.10;99.90
17986;DHT22;9118;48.122;11.546;2022-09-13T06:26:13;14.20;99.90
17986;DHT22;9118;48.122;11.546;2022-09-13T06:28:45;14.30;99.90
17986;DHT22;9118;48.122;11.546;2022-09-13T06:31:23;14.30;99.90
17986;DHT22;9118;48.122;11.546;2022-09-13T06:33:55;14.50;99.90
17986;DHT22;9118;48.122;11.546;2022-09-13T06:36:23;14.50;99.90
17986;DHT22;9118;48.122;11.546;2022-09-13T06:38:51;14.60;99.90
17986;DHT22;9118;48.122;11.546;2022-09-13T06:41:21;14.80;99.90
17986;DHT22;9118;48.122;11.546;2022-09-13T06:43:52;14.70;99.90
17986;DHT22;9118;48.122;11.546;2022-09-13T06:46:21;14.80;99.90
17986;DHT22;9118;48.122;11.546;2022-09-13T06:48:48;14.90;99.90
17986;DHT22;9118;48.122;11.546;2022-09-13T06:51:17;14.90;99.90
17986;DHT22;9118;48.122;11.546;2022-09-13T06:53:47;15.00;99.90
17986;DHT22;9118;48.122;11.546;2022-09-13T06:56:16;15.00;99.90
17986;DHT22;9118;48.122;11.546;2022-09-13T06:58:46;15.10;99.90
17986;DHT22;9118;48.122;11.546;2022-09-13T07:01:16;14.40;99.90
17986;DHT22;9118;48.122;11.546;2022-09-13T07:03:47;15.40;99.90
17986;DHT22;9118;48.122;11.546;2022-09-13T07:06:16;15.40;99.90
17986;DHT22;9118;48.122;11.546;2022-09-13T07:08:47;15.50;99.90
17986;DHT22;9118;48.122;11.546;2022-09-13T07:11:18;15.80;99.90
17986;DHT22;9118;48.122;11.546;2022-09-13T07:13:50;15.70;99.90
17986;DHT22;9118;48.122;11.546;2022-09-13T07:16:19;15.80;99.90
17986;DHT22;9118;48.122;11.546;2022-09-13T07:18:52;15.90;99.90
17986;DHT22;9118;48.122;11.546;2022-09-13T07:21:19;16.10;99.90
17986;DHT22;9118;48.122;11.546;2022-09-13T07:23:48;15.90;99.90
17986;DHT22;9118;48.122;11.546;2022-09-13T07:26:15;16.30;99.90
17986;DHT22;9118;48.122;11.546;2022-09-13T07:28:43;16.50;99.90
17986;DHT22;9118;48.122;11.546;2022-09-13T07:31:13;16.60;99.90
17986;DHT22;9118;48.122;11.546;2022-09-13T07:33:42;16.70;99.90
17986;DHT22;9118;48.122;11.546;2022-09-13T07:36:12;16.80;99.90
17986;DHT22;9118;48.122;11.546;2022-09-13T07:38:41;16.90;99.90
17986;DHT22;9118;48.122;11.546;2022-09-13T07:41:11;17.10;99.90
17986;DHT22;9118;48.122;11.546;2022-09-13T07:43:39;17.40;99.90
17986;DHT22;9118;48.122;11.546;2022-09-13T07:46:09;17.20;99.90
17986;DHT22;9118;48.122;11.546;2022-09-13T07:48:38;17.30;99.90
17986;DHT22;9118;48.122;11.546;2022-09-13T07:51:07;17.30;99.90
17986;DHT22;9118;48.122;11.546;2022-09-13T07:53:38;17.40;99.90
17986;DHT22;9118;48.122;11.546;2022-09-13T07:56:08;18.10;99.90
17986;DHT22;9118;48.122;11.546;2022-09-13T07:58:36;17.60;99.90
17986;DHT22;9118;48.122;11.546;2022-09-13T08:01:08;17.70;99.90
17986;DHT22;9118;48.122;11.546;2022-09-13T08:03:37;17.90;99.90
17986;DHT22;9118;48.122;11.546;2022-09-13T08:06:06;18.00;99.90
17986;DHT22;9118;48.122;11.546;2022-09-13T08:08:34;18.20;99.90
17986;DHT22;9118;48.122;11.546;2022-09-13T08:11:04;18.40;99.90
17986;DHT22;9118;48.122;11.546;2022-09-13T08:13:32;18.50;99.90
17986;DHT22;9118;48.122;11.546;2022-09-13T08:16:04;18.70;99.90
17986;DHT22;9118;48.122;11.546;2022-09-13T08:18:32;18.80;99.90
17986;DHT22;9118;48.122;11.546;2022-09-13T08:21:00;19.20;99.90
17986;DHT22;9118;48.122;11.546;2022-09-13T08:23:28;19.10;99.90
17986;DHT22;9118;48.122;11.546;2022-09-13T08:26:00;19.20;99.90
17986;DHT22;9118;48.122;11.546;2022-09-13T08:28:29;19.40;99.90
17986;DHT22;9118;48.122;11.546;2022-09-13T08:31:02;19.50;99.90
17986;DHT22;9118;48.122;11.546;2022-09-13T08:33:30;19.50;99.90
17986;DHT22;9118;48.122;11.546;2022-09-13T08:35:57;19.50;99.90
17986;DHT22;9118;48.122;11.546;2022-09-13T08:38:24;19.60;99.90
17986;DHT22;9118;48.122;11.546;2022-09-13T08:40:53;19.60;99.90
17986;DHT22;9118;48.122;11.546;2022-09-13T08:43:27;19.60;99.90
17986;DHT22;9118;48.122;11.546;2022-09-13T08:46:05;19.80;99.90
17986;DHT22;9118;48.122;11.546;2022-09-13T08:48:39;19.70;99.90
17986;DHT22;9118;48.122;11.546;2022-09-13T08:51:24;19.80;99.90
17986;DHT22;9118;48.122;11.546;2022-09-13T08:53:57;19.80;99.90
17986;DHT22;9118;48.122;11.546;2022-09-13T08:56:31;20.00;99.90
17986;DHT22;9118;48.122;11.546;2022-09-13T08:59:15;20.00;99.90
17986;DHT22;9118;48.122;11.546;2022-09-13T09:01:52;20.10;99.90
17986;DHT22;9118;48.122;11.546;2022-09-13T09:04:32;20.10;99.90
17986;DHT22;9118;48.122;11.546;2022-09-13T09:07:03;20.20;99.90
17986;DHT22;9118;48.122;11.546;2022-09-13T09:09:35;20.20;99.90
17986;DHT22;9118;48.122;11.546;2022-09-13T09:12:13;20.30;99.90
17986;DHT22;9118;48.122;11.546;2022-09-13T09:14:43;20.30;99.90
17986;DHT22;9118;48.122;11.546;2022-09-13T09:17:20;20.30;99.90
17986;DHT22;9118;48.122;11.546;2022-09-13T09:19:54;20.30;99.90
17986;DHT22;9118;48.122;11.546;2022-09-13T09:22:32;20.30;99.90
17986;DHT22;9118;48.122;11.546;2022-09-13T09:25:00;20.30;99.90
17986;DHT22;9118;48.122;11.546;2022-09-13T09:27:29;20.40;99.90
17986;DHT22;9118;48.122;11.546;2022-09-13T09:29:57;20.40;99.90
17986;DHT22;9118;48.122;11.546;2022-09-13T09:32:46;20.50;99.90
17986;DHT22;9118;48.122;11.546;2022-09-13T09:35:23;20.60;99.90
17986;DHT22;9118;48.122;11.546;2022-09-13T09:38:07;20.70;99.90
17986;DHT22;9118;48.122;11.546;2022-09-13T09:40:40;20.70;99.90
17986;DHT22;9118;48.122;11.546;2022-09-13T09:43:17;21.30;99.90
17986;DHT22;9118;48.122;11.546;2022-09-13T09:45:46;20.60;99.90
17986;DHT22;9118;48.122;11.546;2022-09-13T09:48:21;20.90;99.90
17986;DHT22;9118;48.122;11.546;2022-09-13T09:50:53;21.00;99.90
17986;DHT22;9118;48.122;11.546;2022-09-13T09:53:26;21.00;99.90
17986;DHT22;9118;48.122;11.546;2022-09-13T09:55:58;21.00;99.90
17986;DHT22;9118;48.122;11.546;2022-09-13T09:58:37;21.20;99.90
17986;DHT22;9118;48.122;11.546;2022-09-13T10:01:05;21.20;99.90
17986;DHT22;9118;48.122;11.546;2022-09-13T10:03:38;21.20;99.90
17986;DHT22;9118;48.122;11.546;2022-09-13T10:06:08;21.30;99.90
17986;DHT22;9118;48.122;11.546;2022-09-13T10:08:39;21.20;99.90
17986;DHT22;9118;48.122;11.546;2022-09-13T10:11:08;20.00;99.90
17986;DHT22;9118;48.122;11.546;2022-09-13T10:13:36;21.40;99.90
17986;DHT22;9118;48.122;11.546;2022-09-13T10:16:05;21.40;99.90
17986;DHT22;9118;48.122;11.546;2022-09-13T10:18:35;21.50;99.90
17986;DHT22;9118;48.122;11.546;2022-09-13T10:21:06;21.60;99.90
17986;DHT22;9118;48.122;11.546;2022-09-13T10:23:34;21.80;99.90
17986;DHT22;9118;48.122;11.546;2022-09-13T10:26:08;21.60;99.90
17986;DHT22;9118;48.122;11.546;2022-09-13T10:28:42;21.80;99.90
17986;DHT22;9118;48.122;11.546;2022-09-13T10:31:12;21.70;99.90
17986;DHT22;9118;48.122;11.546;2022-09-13T10:33:42;20.90;99.90
17986;DHT22;9118;48.122;11.546;2022-09-13T10:36:15;21.80;99.90
17986;DHT22;9118;48.122;11.546;2022-09-13T10:38:50;21.80;99.90
17986;DHT22;9118;48.122;11.546;2022-09-13T10:41:23;21.90;99.90
17986;DHT22;9118;48.122;11.546;2022-09-13T10:43:56;21.90;99.90
17986;DHT22;9118;48.122;11.546;2022-09-13T10:46:26;21.90;99.90
17986;DHT22;9118;48.122;11.546;2022-09-13T10:48:53;22.00;99.90
17986;DHT22;9118;48.122;11.546;2022-09-13T10:51:38;22.10;99.90
17986;DHT22;9118;48.122;11.546;2022-09-13T10:54:17;22.20;99.90
17986;DHT22;9118;48.122;11.546;2022-09-13T10:56:45;22.20;99.90
17986;DHT22;9118;48.122;11.546;2022-09-13T10:59:16;22.30;99.90
17986;DHT22;9118;48.122;11.546;2022-09-13T11:01:49;22.40;99.90
17986;DHT22;9118;48.122;11.546;2022-09-13T11:04:47;22.10;99.90
17986;DHT22;9118;48.122;11.546;2022-09-13T11:07:44;22.70;99.90
17986;DHT22;9118;48.122;11.546;2022-09-13T11:10:22;22.80;99.90
17986;DHT22;9118;48.122;11.546;2022-09-13T11:13:01;23.00;99.90
17986;DHT22;9118;48.122;11.546;2022-09-13T11:15:40;23.10;99.90
17986;DHT22;9118;48.122;11.546;2022-09-13T11:18:28;23.30;99.90
17986;DHT22;9118;48.122;11.546;2022-09-13T11:21:10;23.60;99.90
17986;DHT22;9118;48.122;11.546;2022-09-13T11:24:01;23.80;99.90
17986;DHT22;9118;48.122;11.546;2022-09-13T11:26:44;23.70;99.90
17986;DHT22;9118;48.122;11.546;2022-09-13T11:29:21;24.20;99.90
17986;DHT22;9118;48.122;11.546;2022-09-13T11:31:59;24.30;99.90
17986;DHT22;9118;48.122;11.546;2022-09-13T11:34:45;24.30;99.90
17986;DHT22;9118;48.122;11.546;2022-09-13T11:37:38;24.70;99.90
17986;DHT22;9118;48.122;11.546;2022-09-13T11:40:33;24.80;99.90
17986;DHT22;9118;48.122;11.546;2022-09-13T11:43:32;24.80;99.90
17986;DHT22;9118;48.122;11.546;2022-09-13T11:46:10;24.80;99.90
17986;DHT22;9118;48.122;11.546;2022-09-13T11:49:03;24.80;99.90
17986;DHT22;9118;48.122;11.546;2022-09-13T11:51:48;24.80;99.90
17986;DHT22;9118;48.122;11.546;2022-09-13T11:54:26;26.40;99.90
17986;DHT22;9118;48.122;11.546;2022-09-13T11:57:01;24.80;99.90
17986;DHT22;9118;48.122;11.546;2022-09-13T11:59:37;24.80;99.90
17986;DHT22;9118;48.122;11.546;2022-09-13T12:02:23;25.00;99.90
17986;DHT22;9118;48.122;11.546;2022-09-13T12:05:06;24.50;99.90
17986;DHT22;9118;48.122;11.546;2022-09-13T12:07:42;25.00;99.90
17986;DHT22;9118;48.122;11.546;2022-09-13T12:10:18;25.20;99.90
17986;DHT22;9118;48.122;11.546;2022-09-13T12:13:09;23.50;99.90
17986;DHT22;9118;48.122;11.546;2022-09-13T12:15:40;25.10;99.90
17986;DHT22;9118;48.122;11.546;2022-09-13T12:18:13;25.00;99.90
17986;DHT22;9118;48.122;11.546;2022-09-13T12:20:50;25.00;99.90
17986;DHT22;9118;48.122;11.546;2022-09-13T12:23:23;24.80;99.90
17986;DHT22;9118;48.122;11.546;2022-09-13T12:25:57;24.70;99.90
17986;DHT22;9118;48.122;11.546;2022-09-13T12:28:32;24.60;99.90
17986;DHT22;9118;48.122;11.546;2022-09-13T12:31:04;24.50;99.90
17986;DHT22;9118;48.122;11.546;2022-09-13T12:33:38;24.50;99.90
17986;DHT22;9118;48.122;11.546;2022-09-13T12:36:24;24.50;99.90
17986;DHT22;9118;48.122;11.546;2022-09-13T12:47:58;24.50;99.90
17986;DHT22;9118;48.122;11.546;2022-09-13T12:50:50;24.50;99.90
17986;DHT22;9118;48.122;11.546;2022-09-13T12:53:42;24.50;99.90
17986;DHT22;9118;48.122;11.546;2022-09-13T12:56:40;24.50;99.90
17986;DHT22;9118;48.122;11.546;2022-09-13T12:59:18;24.50;99.90
17986;DHT22;9118;48.122;11.546;2022-09-13T13:01:49;24.50;99.90
17986;DHT22;9118;48.122;11.546;2022-09-13T13:04:20;24.50;99.90
17986;DHT22;9118;48.122;11.546;2022-09-13T13:06:50;24.50;99.90
17986;DHT22;9118;48.122;11.546;2022-09-13T13:09:26;24.50;99.90
17986;DHT22;9118;48.122;11.546;2022-09-13T13:11:55;24.60;99.90
17986;DHT22;9118;48.122;11.546;2022-09-13T13:14:44;24.60;99.90
17986;DHT22;9118;48.122;11.546;2022-09-13T13:17:38;24.60;99.90
17986;DHT22;9118;48.122;11.546;2022-09-13T13:20:46;24.70;99.90
17986;DHT22;9118;48.122;11.546;2022-09-13T13:23:20;24.80;99.90
17986;DHT22;9118;48.122;11.546;2022-09-13T13:26:07;24.90;99.90
17986;DHT22;9118;48.122;11.546;2022-09-13T13:31:36;25.20;99.90
17986;DHT22;9118;48.122;11.546;2022-09-13T13:34:34;25.10;99.90
17986;DHT22;9118;48.122;11.546;2022-09-13T13:37:26;25.20;99.90
17986;DHT22;9118;48.122;11.546;2022-09-13T13:40:25;27.60;99.90
17986;DHT22;9118;48.122;11.546;2022-09-13T13:43:16;25.20;99.90
17986;DHT22;9118;48.122;11.546;2022-09-13T13:45:58;25.30;99.90
17986;DHT22;9118;48.122;11.546;2022-09-13T13:55:01;25.30;99.90
17986;DHT22;9118;48.122;11.546;2022-09-13T13:57:35;25.40;99.90
17986;DHT22;9118;48.122;11.546;2022-09-13T14:00:13;25.50;99.90
17986;DHT22;9118;48.122;11.546;2022-09-13T14:02:50;25.50;99.90
17986;DHT22;9118;48.122;11.546;2022-09-13T14:05:29;25.50;99.90
17986;DHT22;9118;48.122;11.546;2022-09-13T14:08:31;24.40;99.90
17986;DHT22;9118;48.122;11.546;2022-09-13T14:11:12;25.60;99.90
17986;DHT22;9118;48.122;11.546;2022-09-13T14:13:51;25.90;99.90
17986;DHT22;9118;48.122;11.546;2022-09-13T14:16:32;26.00;99.90
17986;DHT22;9118;48.122;11.546;2022-09-13T14:19:15;25.90;99.90
17986;DHT22;9118;48.122;11.546;2022-09-13T14:21:45;26.00;99.90
17986;DHT22;9118;48.122;11.546;2022-09-13T14:24:17;25.90;99.90
17986;DHT22;9118;48.122;11.546;2022-09-13T14:26:50;25.90;99.90
17986;DHT22;9118;48.122;11.546;2022-09-13T14:29:19;25.90;99.90
17986;DHT22;9118;48.122;11.546;2022-09-13T14:31:49;25.90;99.90
17986;DHT22;9118;48.122;11.546;2022-09-13T14:34:33;25.70;99.90
17986;DHT22;9118;48.122;11.546;2022-09-13T14:37:03;26.40;99.90
17986;DHT22;9118;48.122;11.546;2022-09-13T14:39:31;26.50;99.90
17986;DHT22;9118;48.122;11.546;2022-09-13T14:42:05;26.70;99.90
17986;DHT22;9118;48.122;11.546;2022-09-13T14:44:42;26.80;99.90
17986;DHT22;9118;48.122;11.546;2022-09-13T14:47:16;26.70;99.90
17986;DHT22;9118;48.122;11.546;2022-09-13T14:49:50;26.70;99.90
17986;DHT22;9118;48.122;11.546;2022-09-13T14:52:25;26.80;99.90
17986;DHT22;9118;48.122;11.546;2022-09-13T14:54:57;27.10;99.90
17986;DHT22;9118;48.122;11.546;2022-09-13T14:57:30;28.10;99.90
17986;DHT22;9118;48.122;11.546;2022-09-13T15:00:04;29.30;99.90
17986;DHT22;9118;48.122;11.546;2022-09-13T15:02:36;29.60;99.90
17986;DHT22;9118;48.122;11.546;2022-09-13T15:05:11;29.30;99.90
17986;DHT22;9118;48.122;11.546;2022-09-13T15:07:41;28.80;99.90
17986;DHT22;9118;48.122;11.546;2022-09-13T15:10:22;28.50;99.90
17986;DHT22;9118;48.122;11.546;2022-09-13T15:12:54;28.80;99.90
17986;DHT22;9118;48.122;11.546;2022-09-13T15:15:32;28.60;99.90
17986;DHT22;9118;48.122;11.546;2022-09-13T15:18:02;28.10;99.90
17986;DHT22;9118;48.122;11.546;2022-09-13T15:20:48;28.60;99.90
17986;DHT22;9118;48.122;11.546;2022-09-13T15:23:17;26.90;99.90
17986;DHT22;9118;48.122;11.546;2022-09-13T15:25:49;26.50;99.90
17986;DHT22;9118;48.122;11.546;2022-09-13T15:28:47;26.20;99.90
17986;DHT22;9118;48.122;11.546;2022-09-13T15:31:20;26.20;99.90
17986;DHT22;9118;48.122;11.546;2022-09-13T15:34:11;25.90;99.90
17986;DHT22;9118;48.122;11.546;2022-09-13T15:36:47;25.90;99.90
17986;DHT22;9118;48.122;11.546;2022-09-13T15:39:28;25.80;99.90
17986;DHT22;9118;48.122;11.546;2022-09-13T15:42:00;25.70;99.90
17986;DHT22;9118;48.122;11.546;2022-09-13T15:44:36;25.50;99.90
17986;DHT22;9118;48.122;11.546;2022-09-13T15:47:10;25.50;99.90
17986;DHT22;9118;48.122;11.546;2022-09-13T15:49:46;25.40;99.90
17986;DHT22;9118;48.122;11.546;2022-09-13T15:52:18;25.20;99.90
17986;DHT22;9118;48.122;11.546;2022-09-13T15:54:47;25.00;99.90
17986;DHT22;9118;48.122;11.546;2022-09-13T15:57:17;24.90;99.90
17986;DHT22;9118;48.122;11.546;2022-09-13T15:59:47;24.80;99.90
17986;DHT22;9118;48.122;11.546;2022-09-13T16:02:18;24.70;99.90
17986;DHT22;9118;48.122;11.546;2022-09-13T16:04:48;24.60;99.90
17986;DHT22;9118;48.122;11.546;2022-09-13T16:07:18;24.50;99.90
17986;DHT22;9118;48.122;11.546;2022-09-13T16:09:46;24.40;99.90
17986;DHT22;9118;48.122;11.546;2022-09-13T16:12:14;24.30;99.90
17986;DHT22;9118;48.122;11.546;2022-09-13T16:14:43;24.30;99.90
17986;DHT22;9118;48.122;11.546;2022-09-13T16:17:23;24.20;99.90
17986;DHT22;9118;48.122;11.546;2022-09-13T16:20:06;24.20;99.90
17986;DHT22;9118;48.122;11.546;2022-09-13T16:22:34;23.70;99.90
17986;DHT22;9118;48.122;11.546;2022-09-13T16:25:02;24.40;99.90
17986;DHT22;9118;48.122;11.546;2022-09-13T16:27:30;24.20;99.90
17986;DHT22;9118;48.122;11.546;2022-09-13T16:29:58;24.20;99.90
17986;DHT22;9118;48.122;11.546;2022-09-13T16:32:27;24.20;99.90
17986;DHT22;9118;48.122;11.546;2022-09-13T16:34:57;24.20;99.90
17986;DHT22;9118;48.122;11.546;2022-09-13T16:37:27;24.10;99.90
17986;DHT22;9118;48.122;11.546;2022-09-13T16:39:55;24.10;99.90
17986;DHT22;9118;48.122;11.546;2022-09-13T16:42:26;24.00;99.90